Time;durP1;ratioP1;P1;durP2;ratioP2;P2;SDS_P1;SDS_P2;PMS_P1;PMS_P2;Temp;Humidity;BMP_temperature;BMP_pressure;BME280_temperature;BME280_humidity;BME280_pressure;Samples;Min_cycle;Max_cycle;Signal;HPM_P1;HPM_P2
2021/05/13 00:00:47;;;;;;;8.33;2.80;;;;;;;12.40;100.00;100321.56;4953818;28;20260;-74
2021/05/13 00:03:13;;;;;;;5.07;2.40;;;;;;;12.26;100.00;100320.63;4969579;28;20185;-74
2021/05/13 00:05:40;;;;;;;5.90;2.70;;;;;;;12.36;100.00;100323.22;4969889;28;20228;-74
2021/05/13 00:08:08;;;;;;;5.43;2.87;;;;;;;12.42;100.00;100327.50;4970112;28;20582;-76
2021/05/13 00:10:39;;;;;;;5.77;2.90;;;;;;;12.42;100.00;100327.50;4922567;28;20229;-75
2021/05/13 00:13:06;;;;;;;4.37;2.47;;;;;;;12.42;100.00;100322.06;4969386;28;20194;-76
2021/05/13 00:15:34;;;;;;;7.57;2.70;;;;;;;12.39;100.00;100319.91;4953842;28;20237;-76
2021/05/13 00:18:00;;;;;;;6.17;3.00;;;;;;;12.28;100.00;100321.16;4937978;28;20327;-75
2021/05/13 00:20:28;;;;;;;6.70;2.80;;;;;;;12.41;100.00;100320.44;4953368;28;20301;-76
2021/05/13 00:22:58;;;;;;;6.60;2.80;;;;;;;12.38;100.00;100319.13;4921746;28;20280;-76
2021/05/13 00:25:24;;;;;;;4.10;2.63;;;;;;;12.48;100.00;100312.72;4937807;28;20552;-74
2021/05/13 00:27:55;;;;;;;6.13;3.07;;;;;;;12.33;100.00;100315.66;4937828;28;20301;-73
2021/05/13 00:30:21;;;;;;;5.10;2.53;;;;;;;12.33;100.00;100302.03;4937126;28;20225;-75
2021/05/13 00:32:51;;;;;;;6.30;3.00;;;;;;;12.21;100.00;100303.53;4937355;28;20206;-73
2021/05/13 00:35:17;;;;;;;4.57;2.70;;;;;;;12.07;100.00;100306.16;4938210;28;20281;-73
2021/05/13 00:37:46;;;;;;;9.43;3.30;;;;;;;12.16;100.00;100306.31;4948421;28;20186;-74
2021/05/13 00:40:13;;;;;;;5.67;2.60;;;;;;;12.13;100.00;100310.44;4965289;28;20238;-76
2021/05/13 00:42:38;;;;;;;9.80;3.40;;;;;;;12.24;100.00;100305.69;4933557;28;20182;-76
2021/05/13 00:45:08;;;;;;;6.20;3.13;;;;;;;12.13;100.00;100299.56;4948125;28;20542;-76
2021/05/13 00:47:44;;;;;;;7.50;3.10;;;;;;;12.04;100.00;100293.13;4948962;28;20703;-76
2021/05/13 00:50:10;;;;;;;10.90;3.63;;;;;;;11.91;100.00;100289.50;4956815;28;20232;-75
2021/05/13 00:52:35;;;;;;;7.20;3.57;;;;;;;12.04;100.00;100287.69;4954376;28;20190;-76
2021/05/13 00:55:04;;;;;;;7.73;3.37;;;;;;;12.04;100.00;100279.50;4956471;28;20644;-75
2021/05/13 00:57:29;;;;;;;7.77;3.47;;;;;;;12.06;100.00;100277.31;4958133;28;20261;-75
2021/05/13 01:00:02;;;;;;;9.37;3.83;;;;;;;11.91;100.00;100274.78;4942644;28;20346;-75
2021/05/13 01:02:30;;;;;;;7.53;3.87;;;;;;;11.93;100.00;100264.41;4957293;28;20226;-74
2021/05/13 01:04:57;;;;;;;7.50;3.47;;;;;;;11.92;100.00;100264.69;4957743;28;20228;-75
2021/05/13 01:07:25;;;;;;;5.83;3.30;;;;;;;11.91;100.00;100273.16;4973650;28;20225;-76
2021/05/13 01:09:53;;;;;;;6.00;3.30;;;;;;;12.00;100.00;100277.66;4957332;28;20296;-76
2021/05/13 01:12:21;;;;;;;8.40;3.87;;;;;;;11.84;100.00;100278.13;4972448;28;20229;-74
2021/05/13 01:14:51;;;;;;;6.67;3.60;;;;;;;11.70;100.00;100266.31;4942310;28;20194;-75
2021/05/13 01:17:54;;;;;;;7.30;3.97;;;;;;;11.79;100.00;100276.25;4941449;28;20276;-75
2021/05/13 01:20:09;;;;;;;5.57;3.37;;;;;;;11.92;100.00;100270.97;4972595;28;20653;-75
2021/05/13 01:22:35;;;;;;;8.53;3.93;;;;;;;11.98;100.00;100275.25;4940826;28;20188;-74
2021/05/13 01:25:03;;;;;;;7.73;3.70;;;;;;;11.84;100.00;100272.69;4957500;28;20190;-75
2021/05/13 01:27:36;;;;;;;7.83;3.90;;;;;;;11.82;100.00;100264.00;4956375;28;20234;-76
2021/05/13 01:30:02;;;;;;;8.43;3.93;;;;;;;11.81;100.00;100268.63;4973039;28;20233;-74
2021/05/13 01:32:30;;;;;;;8.33;3.77;;;;;;;11.66;100.00;100278.88;4956170;28;20229;-74
2021/05/13 01:34:59;;;;;;;8.53;3.73;;;;;;;11.79;100.00;100270.81;4957039;28;20190;-74
2021/05/13 01:37:27;;;;;;;7.93;3.10;;;;;;;11.62;100.00;100272.38;4988207;28;20309;-75
2021/05/13 01:39:53;;;;;;;7.77;3.40;;;;;;;11.45;100.00;100257.63;4973945;28;20202;-75
2021/05/13 01:42:18;;;;;;;7.97;3.87;;;;;;;11.45;100.00;100257.63;4939739;28;20237;-75
2021/05/13 01:44:44;;;;;;;7.90;3.70;;;;;;;11.29;100.00;100247.97;4940432;28;20182;-75
2021/05/13 01:47:12;;;;;;;8.63;3.43;;;;;;;11.20;100.00;100257.81;4940107;28;20230;-75
2021/05/13 01:49:40;;;;;;;8.27;3.67;;;;;;;11.57;100.00;100251.50;4941639;28;20257;-75
2021/05/13 01:52:06;;;;;;;9.13;3.80;;;;;;;11.63;100.00;100244.91;4971278;28;20226;-74
2021/05/13 01:54:34;;;;;;;7.90;3.93;;;;;;;11.48;100.00;100266.00;4956411;28;20774;-75
2021/05/13 01:57:06;;;;;;;10.47;4.07;;;;;;;11.53;100.00;100263.22;4940890;28;20598;-75
2021/05/13 01:59:36;;;;;;;8.80;4.57;;;;;;;11.63;100.00;100255.78;4942816;28;20197;-75
2021/05/13 02:02:06;;;;;;;8.80;4.33;;;;;;;11.59;100.00;100264.78;4955470;28;20273;-76
2021/05/13 02:04:34;;;;;;;8.00;4.77;;;;;;;11.69;100.00;100259.25;4972079;28;20197;-76
2021/05/13 02:07:02;;;;;;;6.07;3.93;;;;;;;11.72;100.00;100264.94;4987233;28;20353;-76
2021/05/13 02:09:32;;;;;;;7.93;3.83;;;;;;;11.79;100.00;100264.56;4972585;28;20230;-75
2021/05/13 02:11:59;;;;;;;9.13;4.13;;;;;;;11.77;100.00;100264.88;4970972;28;20226;-75
2021/05/13 02:14:26;;;;;;;8.80;4.23;;;;;;;11.67;100.00;100259.53;4956347;28;20270;-75
2021/05/13 02:16:54;;;;;;;7.03;3.93;;;;;;;11.73;100.00;100257.59;4955681;28;20457;-75
2021/05/13 02:19:24;;;;;;;5.97;3.90;;;;;;;11.65;100.00;100252.78;4956328;28;20746;-75
2021/05/13 02:21:52;;;;;;;7.30;4.00;;;;;;;11.65;100.00;100263.66;4970959;28;20260;-75
2021/05/13 02:24:18;;;;;;;8.10;4.30;;;;;;;11.51;100.00;100264.63;4987822;28;20191;-75
2021/05/13 02:26:46;;;;;;;9.90;4.90;;;;;;;11.50;100.00;100255.66;4955502;28;20382;-75
2021/05/13 02:29:12;;;;;;;8.90;4.43;;;;;;;11.45;100.00;100257.63;4956255;28;20226;-75
2021/05/13 02:31:43;;;;;;;8.17;4.47;;;;;;;11.49;100.00;100259.47;4970898;28;20658;-76
2021/05/13 02:34:08;;;;;;;12.23;5.30;;;;;;;11.38;100.00;100257.91;4956497;28;20186;-75
2021/05/13 02:36:34;;;;;;;9.40;5.27;;;;;;;11.43;100.00;100257.88;4955717;28;20617;-76
2021/05/13 02:39:00;;;;;;;10.37;5.70;;;;;;;11.25;100.00;100268.66;4940384;28;20221;-76
2021/05/13 02:41:27;;;;;;;9.07;5.50;;;;;;;11.35;100.00;100258.47;4955031;28;20230;-75
2021/05/13 02:43:53;;;;;;;11.07;5.73;;;;;;;11.36;100.00;100254.69;4970480;28;20194;-74
2021/05/13 02:46:18;;;;;;;12.30;5.40;;;;;;;11.41;100.00;100257.34;4955276;28;20625;-76
2021/05/13 02:48:44;;;;;;;12.67;5.33;;;;;;;11.29;100.00;100248.75;4971403;28;20891;-75
2021/05/13 02:51:14;;;;;;;14.13;6.20;;;;;;;11.38;100.00;100241.59;4970965;28;20240;-75
2021/05/13 02:53:40;;;;;;;13.80;6.00;;;;;;;11.27;100.00;100240.09;4970832;28;20191;-75
2021/05/13 02:56:10;;;;;;;13.53;6.10;;;;;;;11.21;100.00;100246.66;4971007;28;20238;-74
2021/05/13 02:58:38;;;;;;;16.17;6.77;;;;;;;11.20;100.00;100234.16;4987504;28;20262;-74
2021/05/13 03:03:50;;;;;;;12.60;6.57;;;;;;;11.27;100.00;100229.22;4970578;28;20190;-76
2021/05/13 03:06:16;;;;;;;11.90;6.80;;;;;;;11.45;100.00;100225.00;4955362;28;20229;-75
2021/05/13 03:08:42;;;;;;;12.27;7.03;;;;;;;11.54;100.00;100230.31;4955141;28;20218;-76
2021/05/13 03:11:08;;;;;;;13.80;6.50;;;;;;;11.21;100.00;100227.63;4954742;28;20616;-74
2021/05/13 03:13:34;;;;;;;11.77;6.87;;;;;;;11.49;100.00;100228.75;4954433;28;20269;-74
2021/05/13 03:16:05;;;;;;;14.90;6.80;;;;;;;11.48;100.00;100230.63;4954618;28;20692;-74
2021/05/13 03:18:32;;;;;;;13.37;7.10;;;;;;;11.22;100.00;100240.13;4953936;28;20186;-74
2021/05/13 03:21:35;;;;;;;13.43;6.83;;;;;;;11.24;100.00;100232.50;4938763;28;20241;-74
2021/05/13 03:24:00;;;;;;;12.20;6.50;;;;;;;11.15;100.00;100231.50;4969337;28;20202;-74
2021/05/13 03:29:01;;;;;;;10.77;6.47;;;;;;;11.08;100.00;100223.97;4976517;28;20206;-74
2021/05/13 03:31:31;;;;;;;15.03;7.30;;;;;;;11.17;100.00;100223.88;4991665;28;20229;-75
2021/05/13 03:33:56;;;;;;;14.33;7.20;;;;;;;11.12;100.00;100214.13;4989410;28;20281;-75
2021/05/13 03:36:24;;;;;;;17.27;7.00;;;;;;;11.15;100.00;100219.81;4957000;28;20697;-75
2021/05/13 03:38:50;;;;;;;15.13;7.50;;;;;;;11.33;100.00;100217.19;4958226;28;20273;-75
2021/05/13 03:41:18;;;;;;;17.70;7.83;;;;;;;11.29;100.00;100216.13;4973314;28;20233;-75
2021/05/13 03:43:46;;;;;;;17.53;8.30;;;;;;;11.26;100.00;100210.47;4973499;28;20194;-74
2021/05/13 03:46:12;;;;;;;15.17;8.30;;;;;;;11.32;100.00;100212.84;4973605;28;20229;-75
2021/05/13 03:48:38;;;;;;;17.27;8.60;;;;;;;11.09;100.00;100220.16;4991069;28;20624;-76
2021/05/13 03:51:04;;;;;;;18.10;8.07;;;;;;;11.28;100.00;100214.53;4988792;28;20225;-74
2021/05/13 03:53:30;;;;;;;16.33;8.47;;;;;;;11.20;100.00;100206.97;4941065;28;20189;-74
2021/05/13 03:55:56;;;;;;;18.10;8.67;;;;;;;11.23;100.00;100211.84;4957053;28;20300;-74
2021/05/13 03:58:24;;;;;;;18.47;9.50;;;;;;;10.99;100.00;100209.34;4941612;28;20241;-75
2021/05/13 04:03:20;;;;;;;15.13;7.90;;;;;;;11.19;100.00;100208.09;4969706;28;20734;-74
2021/05/13 04:05:48;;;;;;;22.10;8.70;;;;;;;11.00;100.00;100205.56;4953967;28;20227;-74
2021/05/13 04:08:14;;;;;;;16.77;8.80;;;;;;;11.31;100.00;100197.63;4954638;28;20218;-74
2021/05/13 04:10:42;;;;;;;15.53;8.90;;;;;;;11.33;100.00;100192.69;4969436;28;20222;-75
2021/05/13 04:13:10;;;;;;;16.57;9.03;;;;;;;11.50;100.00;100198.56;4937497;28;20238;-75
2021/05/13 04:15:36;;;;;;;16.40;9.00;;;;;;;11.56;100.00;100194.66;4937712;28;20646;-75
2021/05/13 04:18:04;;;;;;;20.23;8.80;;;;;;;11.44;100.00;100183.38;4954026;28;20652;-74
2021/05/13 04:20:30;;;;;;;15.80;9.40;;;;;;;11.52;100.00;100182.75;4953074;28;20317;-74
2021/05/13 04:22:57;;;;;;;17.57;8.57;;;;;;;11.59;100.00;100180.47;4953350;28;20241;-74
2021/05/13 04:25:27;;;;;;;17.10;8.97;;;;;;;11.60;100.00;100179.38;4937470;28;20747;-74
2021/05/13 04:27:55;;;;;;;15.37;9.43;;;;;;;11.56;100.00;100172.91;4969938;28;20182;-74
2021/05/13 04:30:23;;;;;;;16.07;8.87;;;;;;;11.69;100.00;100172.22;4953258;28;20209;-74
2021/05/13 04:32:49;;;;;;;15.83;8.93;;;;;;;11.45;100.00;100170.59;4952859;28;20576;-74
2021/05/13 04:35:15;;;;;;;21.10;9.90;;;;;;;11.55;100.00;100165.84;4953161;28;20183;-75
2021/05/13 04:37:43;;;;;;;21.77;9.50;;;;;;;11.60;100.00;100155.69;4970065;28;20668;-74
2021/05/13 04:40:09;;;;;;;19.03;10.20;;;;;;;11.48;100.00;100159.13;4953253;28;20265;-76
2021/05/13 04:42:37;;;;;;;23.40;11.07;;;;;;;11.56;100.00;100159.31;4953422;28;20739;-75
2021/05/13 04:45:04;;;;;;;17.57;10.50;;;;;;;11.67;100.00;100158.09;4937374;28;20190;-76
2021/05/13 04:47:52;;;;;;;18.50;9.90;;;;;;;11.64;100.00;100148.56;4953805;28;20250;-75
2021/05/13 04:50:17;;;;;;;19.97;10.60;;;;;;;11.71;100.00;100153.69;4940225;28;20226;-76
2021/05/13 04:52:43;;;;;;;19.30;9.57;;;;;;;11.67;100.00;100141.75;4938232;28;20286;-75
2021/05/13 04:55:16;;;;;;;17.17;9.60;;;;;;;11.75;100.00;100146.53;4938576;28;20193;-76
2021/05/13 04:57:42;;;;;;;21.97;10.13;;;;;;;11.83;100.00;100141.28;4955257;28;20577;-75
2021/05/13 05:00:11;;;;;;;17.27;9.80;;;;;;;12.01;100.00;100149.47;4954283;28;20206;-75
2021/05/13 05:02:40;;;;;;;25.83;11.10;;;;;;;12.13;100.00;100147.09;4952683;28;20230;-75
2021/05/13 05:05:11;;;;;;;16.63;9.70;;;;;;;12.06;100.00;100146.63;4954246;28;20196;-74
2021/05/13 05:07:36;;;;;;;19.40;9.63;;;;;;;11.97;100.00;100142.16;4938568;28;20190;-75
2021/05/13 05:10:05;;;;;;;19.90;10.20;;;;;;;11.84;100.00;100142.06;4955291;28;20269;-74
2021/05/13 05:12:30;;;;;;;17.87;10.10;;;;;;;11.96;100.00;100135.91;4970569;28;20291;-76
2021/05/13 05:14:57;;;;;;;16.80;10.27;;;;;;;11.85;100.00;100143.69;4953895;28;20191;-74
2021/05/13 05:17:23;;;;;;;19.73;10.53;;;;;;;11.84;100.00;100142.88;4968987;28;20321;-76
2021/05/13 05:19:53;;;;;;;18.30;10.57;;;;;;;11.91;100.00;100131.66;4953426;28;20207;-76
2021/05/13 05:22:19;;;;;;;17.87;11.23;;;;;;;11.95;100.00;100138.91;4968403;28;20329;-76
2021/05/13 05:24:44;;;;;;;16.97;11.13;;;;;;;12.03;100.00;100136.34;4969427;28;20581;-73
2021/05/13 05:27:13;;;;;;;20.93;12.70;;;;;;;11.88;100.00;100135.75;4953509;28;20234;-76
2021/05/13 05:29:39;;;;;;;18.33;12.33;;;;;;;11.99;100.00;100129.06;4970608;28;20273;-75
2021/05/13 05:32:05;;;;;;;21.97;13.07;;;;;;;12.09;100.00;100131.66;4935974;28;21070;-76
2021/05/13 05:34:31;;;;;;;18.73;12.50;;;;;;;11.79;100.00;100129.34;4953253;28;20190;-75
2021/05/13 05:36:59;;;;;;;18.63;13.63;;;;;;;11.71;100.00;100126.47;4936813;28;20572;-75
2021/05/13 05:39:27;;;;;;;21.23;14.07;;;;;;;11.85;100.00;100133.63;4969414;28;20285;-76
2021/05/13 05:41:54;;;;;;;22.13;13.97;;;;;;;11.82;100.00;100122.50;4969901;28;20257;-75
2021/05/13 05:44:20;;;;;;;20.30;13.30;;;;;;;11.64;100.00;100124.09;4940952;28;20242;-74
2021/05/13 05:46:52;;;;;;;26.67;14.40;;;;;;;11.55;100.00;100122.31;4956554;28;20293;-77
2021/05/13 05:49:20;;;;;;;20.03;13.67;;;;;;;11.84;100.00;100110.22;4957201;28;20743;-74
2021/05/13 05:51:50;;;;;;;21.10;14.70;;;;;;;11.87;100.00;100108.81;4939775;28;20783;-75
2021/05/13 05:54:18;;;;;;;23.37;14.47;;;;;;;11.94;100.00;100113.63;4959254;28;20212;-73
2021/05/13 05:56:46;;;;;;;20.83;15.27;;;;;;;12.12;100.00;100118.22;4955938;28;20229;-74
2021/05/13 05:59:14;;;;;;;20.87;13.77;;;;;;;12.00;100.00;100114.34;4951494;28;20210;-74
2021/05/13 06:01:42;;;;;;;20.50;14.27;;;;;;;12.06;100.00;100115.91;4988149;28;20216;-79
2021/05/13 06:04:08;;;;;;;18.87;13.90;;;;;;;12.19;100.00;100112.44;4959238;28;20185;-77
2021/05/13 06:06:34;;;;;;;23.37;13.63;;;;;;;11.93;100.00;100109.25;4959347;28;20606;-74
2021/05/13 06:09:03;;;;;;;20.97;14.07;;;;;;;12.12;100.00;100109.25;4990449;28;20665;-74
2021/05/13 06:11:28;;;;;;;20.40;14.50;;;;;;;12.11;100.00;100113.91;4990800;28;20236;-74
2021/05/13 06:13:54;;;;;;;24.37;15.47;;;;;;;12.13;100.00;100105.44;4969413;28;20190;-75
2021/05/13 06:16:19;;;;;;;22.03;14.70;;;;;;;12.30;100.00;100106.53;4971989;28;20225;-74
2021/05/13 06:18:51;;;;;;;22.20;15.07;;;;;;;12.16;100.00;100116.56;4959657;28;20185;-75
2021/05/13 06:21:19;;;;;;;20.77;14.03;;;;;;;12.37;100.00;100104.22;4971962;28;20727;-73
2021/05/13 06:23:47;;;;;;;21.60;15.13;;;;;;;12.12;100.00;100101.09;4974106;28;20197;-74
2021/05/13 06:26:27;;;;;;;21.70;14.70;;;;;;;12.34;100.00;100100.19;4960024;28;20336;-74
2021/05/13 06:28:52;;;;;;;21.90;14.87;;;;;;;12.52;100.00;100096.59;4984945;28;20213;-74
2021/05/13 06:31:24;;;;;;;20.83;14.73;;;;;;;12.69;100.00;100089.50;4990761;28;20233;-73
2021/05/13 06:33:49;;;;;;;19.63;14.33;;;;;;;12.76;100.00;100092.66;4954648;28;20979;-72
2021/05/13 06:36:15;;;;;;;23.07;15.53;;;;;;;12.75;100.00;100090.22;4985188;28;20233;-75
2021/05/13 06:38:42;;;;;;;20.97;13.93;;;;;;;12.48;100.00;100094.78;4975074;28;20228;-76
2021/05/13 06:41:12;;;;;;;21.80;14.50;;;;;;;12.56;100.00;100096.81;4979689;28;20230;-75
2021/05/13 06:43:38;;;;;;;20.87;14.10;;;;;;;12.50;100.00;100095.31;4939125;28;20182;-73
2021/05/13 06:46:06;;;;;;;21.17;14.97;;;;;;;12.55;100.00;100101.47;4985102;28;20229;-73
2021/05/13 06:48:33;;;;;;;21.47;13.97;;;;;;;12.61;100.00;100099.47;4974956;28;20213;-67
2021/05/13 06:51:01;;;;;;;18.27;13.10;;;;;;;12.70;100.00;100093.84;4990383;28;20240;-68
2021/05/13 06:53:27;;;;;;;16.87;12.83;;;;;;;12.69;100.00;100092.22;4989528;28;20190;-73
2021/05/13 06:55:53;;;;;;;18.97;12.27;;;;;;;13.24;100.00;100091.19;4958169;28;20225;-73
2021/05/13 06:58:19;;;;;;;24.80;13.73;;;;;;;13.12;100.00;100099.88;4991662;28;20474;-73
2021/05/13 07:00:48;;;;;;;16.23;12.10;;;;;;;13.19;100.00;100094.03;4973014;28;20221;-75
2021/05/13 07:03:14;;;;;;;18.37;13.20;;;;;;;12.88;100.00;100084.81;4973279;28;20217;-75
2021/05/13 07:05:42;;;;;;;18.60;11.97;;;;;;;12.90;100.00;100095.44;4990275;28;20252;-73
2021/05/13 07:08:10;;;;;;;17.93;11.43;;;;;;;12.69;100.00;100091.41;4960036;28;20194;-73
2021/05/13 07:10:39;;;;;;;16.87;11.93;;;;;;;13.11;100.00;100094.72;4973811;28;20229;-71
2021/05/13 07:13:05;;;;;;;16.87;11.70;;;;;;;12.82;100.00;100080.56;4991154;28;20181;-74
2021/05/13 07:15:35;;;;;;;16.30;10.60;;;;;;;13.31;100.00;100083.41;4974424;28;20224;-73
2021/05/13 07:18:01;;;;;;;17.93;10.37;;;;;;;13.21;100.00;100083.63;4987673;28;20189;-75
2021/05/13 07:20:27;;;;;;;15.13;10.70;;;;;;;13.62;100.00;100082.47;4957027;28;20236;-75
2021/05/13 07:22:53;;;;;;;16.90;10.10;;;;;;;13.29;100.00;100080.19;4973374;28;20202;-74
2021/05/13 07:25:24;;;;;;;16.80;10.30;;;;;;;13.64;100.00;100082.97;4949161;28;20665;-73
2021/05/13 07:27:50;;;;;;;16.27;10.33;;;;;;;13.66;100.00;100092.50;4950848;28;20625;-74
2021/05/13 07:30:16;;;;;;;16.83;10.80;;;;;;;13.62;100.00;100083.28;4955244;28;20217;-73
2021/05/13 07:32:44;;;;;;;14.83;10.00;;;;;;;13.73;100.00;100092.06;4976010;28;20618;-75
2021/05/13 07:35:10;;;;;;;15.73;10.90;;;;;;;13.62;100.00;100087.94;5000154;28;20190;-71
2021/05/13 07:37:38;;;;;;;14.50;10.13;;;;;;;13.69;100.00;100089.13;4986941;28;20204;-72
2021/05/13 07:40:04;;;;;;;12.90;9.47;;;;;;;13.59;100.00;100085.84;4957763;28;20202;-71
2021/05/13 07:42:32;;;;;;;17.00;11.47;;;;;;;13.42;100.00;100096.53;4986102;28;20229;-71
2021/05/13 07:45:00;;;;;;;16.10;10.63;;;;;;;13.73;100.00;100086.59;4966877;28;20572;-73
2021/05/13 07:47:27;;;;;;;13.87;9.60;;;;;;;13.87;100.00;100094.47;4956627;28;20217;-74
2021/05/13 07:49:54;;;;;;;11.83;9.67;;;;;;;14.20;100.00;100086.91;4968557;28;20819;-74
2021/05/13 07:52:20;;;;;;;16.03;9.50;;;;;;;14.05;100.00;100088.06;4935585;28;20221;-73
2021/05/13 07:54:45;;;;;;;14.07;9.43;;;;;;;13.95;100.00;100087.47;4957417;28;20956;-76
2021/05/13 07:57:13;;;;;;;13.07;9.17;;;;;;;14.06;100.00;100081.47;4969003;28;20291;-73
2021/05/13 07:59:39;;;;;;;12.37;8.83;;;;;;;13.84;100.00;100083.34;4972429;28;20256;-74
2021/05/13 08:02:07;;;;;;;11.63;8.03;;;;;;;13.90;100.00;100079.41;4967709;28;20297;-74
2021/05/13 08:04:35;;;;;;;10.73;8.50;;;;;;;14.05;100.00;100090.00;4974332;28;20196;-76
2021/05/13 08:07:01;;;;;;;11.33;8.23;;;;;;;13.92;99.26;100090.81;4983356;28;20675;-74
2021/05/13 08:09:26;;;;;;;10.70;7.67;;;;;;;14.29;95.82;100089.41;4988772;28;20218;-76
2021/05/13 08:11:52;;;;;;;12.00;7.57;;;;;;;14.01;96.61;100088.94;4972705;28;20221;-73
2021/05/13 08:14:22;;;;;;;10.70;7.00;;;;;;;13.82;96.78;100080.91;4971687;28;20190;-74
2021/05/13 08:16:50;;;;;;;9.97;6.87;;;;;;;13.81;97.51;100073.06;4955183;28;20244;-73
2021/05/13 08:19:16;;;;;;;9.87;7.00;;;;;;;13.77;97.10;100077.47;4973234;28;20244;-72
2021/05/13 08:21:44;;;;;;;10.73;6.70;;;;;;;14.17;97.35;100076.59;4987711;28;20221;-74
2021/05/13 08:24:10;;;;;;;8.90;6.53;;;;;;;14.30;95.06;100077.34;4973003;28;20196;-75
2021/05/13 08:26:35;;;;;;;12.37;6.73;;;;;;;14.81;91.83;100074.94;4972765;28;20225;-77
2021/05/13 08:29:03;;;;;;;8.17;6.37;;;;;;;15.02;90.09;100069.41;4989540;28;20237;-74
2021/05/13 08:31:29;;;;;;;9.00;6.37;;;;;;;15.36;87.61;100075.03;4973164;28;20231;-74
2021/05/13 08:33:55;;;;;;;8.43;6.17;;;;;;;15.09;86.82;100068.94;4972957;28;20186;-73
2021/05/13 08:36:23;;;;;;;9.13;6.40;;;;;;;14.83;89.91;100061.75;4989230;28;20225;-75
2021/05/13 08:38:48;;;;;;;8.37;6.20;;;;;;;14.67;88.98;100072.31;4957843;28;20217;-75
2021/05/13 08:41:16;;;;;;;10.20;5.97;;;;;;;14.97;89.58;100076.16;4973159;28;20236;-73
2021/05/13 08:43:49;;;;;;;7.67;5.63;;;;;;;15.16;88.66;100072.91;4957395;28;20197;-74
2021/05/13 08:46:17;;;;;;;7.30;5.93;;;;;;;15.21;88.40;100066.47;4973987;28;20279;-75
2021/05/13 08:48:44;;;;;;;7.30;5.60;;;;;;;15.37;86.84;100068.47;4973662;28;20201;-75
2021/05/13 08:51:10;;;;;;;8.70;6.17;;;;;;;14.94;86.78;100065.84;4972917;28;20221;-73
2021/05/13 08:53:49;;;;;;;9.37;6.20;;;;;;;15.18;88.30;100073.41;4940865;28;20200;-73
2021/05/13 08:56:15;;;;;;;9.20;6.10;;;;;;;15.32;87.71;100065.84;4973531;28;20249;-74
2021/05/13 08:58:44;;;;;;;8.17;5.73;;;;;;;14.50;89.98;100070.56;4958836;28;20265;-75
2021/05/13 09:01:22;;;;;;;8.27;5.57;;;;;;;14.77;91.36;100063.81;4958063;28;20308;-76
2021/05/13 09:03:48;;;;;;;9.10;5.73;;;;;;;15.10;87.63;100063.16;4941464;28;20177;-74
2021/05/13 09:08:56;;;;;;;8.33;5.03;;;;;;;15.81;84.33;100060.81;4958393;28;20307;-75
2021/05/13 09:11:22;;;;;;;8.93;4.97;;;;;;;15.92;82.84;100057.44;4957047;28;20222;-75
2021/05/13 09:14:06;;;;;;;8.43;5.03;;;;;;;15.62;83.95;100065.78;4957512;28;20201;-74
2021/05/13 09:16:35;;;;;;;8.40;5.30;;;;;;;15.42;83.24;100066.38;4991926;28;20244;-75
2021/05/13 09:19:18;;;;;;;8.40;5.38;;;;;;;15.31;86.34;100056.06;4978739;28;20648;-76
2021/05/13 09:22:00;;;;;;;7.90;5.50;;;;;;;14.99;86.27;100063.78;4977344;28;20225;-73
2021/05/13 09:24:50;;;;;;;8.30;5.05;;;;;;;15.04;89.00;100069.13;4979562;28;20213;-75
2021/05/13 09:27:39;;;;;;;7.88;5.22;;;;;;;14.91;91.50;100055.50;4993652;28;20722;-74
2021/05/13 09:30:18;;;;;;;8.88;5.07;;;;;;;15.24;85.05;100061.19;4993584;28;20341;-75
2021/05/13 09:33:08;;;;;;;6.43;5.00;;;;;;;15.60;85.53;100059.00;4961515;28;20178;-75
2021/05/13 09:35:36;;;;;;;5.80;4.47;;;;;;;15.82;82.32;100063.25;4993665;28;20367;-74
2021/05/13 09:38:03;;;;;;;7.67;5.00;;;;;;;15.63;82.04;100064.66;4977395;28;20272;-75
2021/05/13 09:40:50;;;;;;;7.20;4.70;;;;;;;15.84;81.03;100060.16;4977557;28;20225;-74
2021/05/13 09:43:26;;;;;;;7.33;4.87;;;;;;;15.51;80.20;100071.88;5003087;28;20185;-74
2021/05/13 09:46:01;;;;;;;6.23;4.33;;;;;;;15.49;81.57;100060.44;4970572;28;20225;-73
2021/05/13 09:48:39;;;;;;;7.80;5.10;;;;;;;15.37;81.43;100070.41;5004257;28;20216;-75
2021/05/13 09:51:23;;;;;;;6.37;4.40;;;;;;;15.31;80.99;100060.69;5003833;28;20249;-73
2021/05/13 09:53:50;;;;;;;7.10;4.93;;;;;;;15.00;84.25;100068.13;5002393;28;20735;-73
2021/05/13 09:56:26;;;;;;;7.27;4.73;;;;;;;15.06;84.82;100069.59;4947531;28;20230;-74
2021/05/13 09:58:52;;;;;;;7.60;4.90;;;;;;;15.03;83.06;100071.03;4979419;28;20194;-73
2021/05/13 10:01:20;;;;;;;8.57;4.70;;;;;;;15.18;81.25;100070.66;4961861;28;20232;-75
2021/05/13 10:03:49;;;;;;;9.43;4.83;;;;;;;15.29;80.47;100069.25;4991647;28;20296;-74
2021/05/13 10:06:16;;;;;;;6.93;4.87;;;;;;;15.19;82.47;100066.78;4958979;28;20218;-74
2021/05/13 10:08:45;;;;;;;7.33;4.90;;;;;;;15.04;85.04;100064.44;4974116;28;20241;-74
2021/05/13 10:11:10;;;;;;;6.60;4.50;;;;;;;15.35;82.22;100059.75;4974596;28;20341;-74
2021/05/13 10:13:36;;;;;;;6.87;4.60;;;;;;;15.25;84.28;100065.50;4940957;28;20788;-74
2021/05/13 10:16:03;;;;;;;8.20;4.97;;;;;;;15.10;82.59;100065.91;4972863;28;20226;-74
2021/05/13 10:18:48;;;;;;;9.03;4.70;;;;;;;15.30;83.17;100065.38;4942888;28;20210;-74
2021/05/13 10:21:20;;;;;;;6.80;4.60;;;;;;;15.73;79.52;100064.34;4957320;28;20782;-73
2021/05/13 10:23:55;;;;;;;7.47;4.87;;;;;;;15.81;78.86;100056.16;4957505;28;20274;-74
2021/05/13 10:26:32;;;;;;;7.40;4.40;;;;;;;15.92;77.64;100057.44;4941516;28;20257;-75
2021/05/13 10:28:57;;;;;;;5.67;4.60;;;;;;;16.04;76.61;100057.59;4972965;28;20213;-74
2021/05/13 10:35:07;;;;;;;6.97;4.93;;;;;;;15.92;78.61;100057.44;4959529;28;20665;-76
2021/05/13 10:37:38;;;;;;;7.30;4.68;;;;;;;16.02;79.75;100062.59;4957167;28;20195;-74
2021/05/13 10:42:35;;;;;;;8.40;5.13;;;;;;;16.03;82.03;100058.75;4971864;28;20319;-73
2021/05/13 10:45:01;;;;;;;6.15;4.63;;;;;;;15.39;82.79;100052.53;4957418;28;20190;-74
2021/05/13 10:47:29;;;;;;;6.57;4.63;;;;;;;15.51;82.75;100052.69;4972547;28;20692;-74
2021/05/13 10:49:57;;;;;;;5.70;4.33;;;;;;;16.00;80.95;100053.88;4940873;28;20247;-75
2021/05/13 10:52:36;;;;;;;5.10;3.87;;;;;;;15.82;77.82;100052.28;4955237;28;20782;-74
2021/05/13 10:55:07;;;;;;;6.13;3.87;;;;;;;15.34;80.32;100054.59;4940235;28;20269;-76
2021/05/13 10:57:49;;;;;;;7.50;4.67;;;;;;;15.39;82.61;100058.78;4948353;28;20187;-75
2021/05/13 11:00:17;;;;;;;5.07;4.17;;;;;;;15.24;82.01;100060.38;4939492;28;20206;-75
2021/05/13 11:02:46;;;;;;;5.57;4.30;;;;;;;15.28;82.25;100056.69;4990667;28;20189;-74
2021/05/13 11:05:38;;;;;;;6.33;4.20;;;;;;;15.49;82.28;100058.53;4974918;28;20329;-73
2021/05/13 11:08:09;;;;;;;5.53;4.30;;;;;;;15.76;79.37;100062.91;4975055;28;20192;-74
2021/05/13 11:10:57;;;;;;;6.50;4.33;;;;;;;15.73;79.35;100063.53;4990284;28;20233;-74
2021/05/13 11:13:25;;;;;;;6.40;4.37;;;;;;;15.87;79.98;100065.00;4990501;28;20185;-74
2021/05/13 11:15:53;;;;;;;7.35;5.63;;;;;;;15.97;80.79;100062.78;4942455;28;20222;-74
2021/05/13 11:18:25;;;;;;;5.75;4.57;;;;;;;16.15;75.11;100061.63;4975563;28;20190;-76
2021/05/13 11:20:55;;;;;;;8.37;7.57;;;;;;;15.84;78.25;100061.00;4974816;28;20229;-76
2021/05/13 11:23:31;;;;;;;7.60;6.80;;;;;;;15.76;79.96;100057.44;4958700;28;20278;-74
2021/05/13 11:26:03;;;;;;;5.67;4.67;;;;;;;15.55;80.86;100053.69;4965551;28;20281;-74
2021/05/13 11:28:42;;;;;;;4.78;3.88;;;;;;;15.39;80.27;100055.25;4985327;28;20217;-74
2021/05/13 11:31:08;;;;;;;4.73;3.80;;;;;;;15.52;82.37;100054.31;4982884;28;20240;-73
2021/05/13 11:33:47;;;;;;;5.43;4.20;;;;;;;15.36;81.05;100058.63;4983121;28;20186;-73
2021/05/13 11:36:16;;;;;;;4.93;3.80;;;;;;;15.66;81.48;100053.06;4977797;28;20232;-74
2021/05/13 11:38:45;;;;;;;6.37;4.17;;;;;;;15.40;83.04;100045.91;4977687;28;20711;-73